Time;durP1;ratioP1;P1;durP2;ratioP2;P2;SDS_P1;SDS_P2;PMS_P1;PMS_P2;Temp;Humidity;BMP_temperature;BMP_pressure;BME280_temperature;BME280_humidity;BME280_pressure;Samples;Min_cycle;Max_cycle;Signal;HPM_P1;HPM_P2
2022/07/20 00:06:03;;;;;;;4.70;2.50;;;;;;;19.60;71.59;97673.31;18480976;32;20061;-63
2022/07/20 00:16:06;;;;;;;4.37;2.87;;;;;;;19.44;71.62;97676.56;18481222;32;20424;-63
2022/07/20 00:26:09;;;;;;;3.93;2.40;;;;;;;19.32;72.10;97683.87;18495016;32;20072;-62
2022/07/20 00:36:11;;;;;;;3.42;2.55;;;;;;;19.22;72.65;97679.56;18494623;32;20093;-62
2022/07/20 00:46:13;;;;;;;2.87;2.30;;;;;;;19.17;73.02;97674.25;18494695;32;20044;-62
2022/07/20 00:56:17;;;;;;;2.55;2.20;;;;;;;19.13;72.30;97672.16;18481570;32;20109;-62
2022/07/20 01:06:20;;;;;;;3.08;2.40;;;;;;;19.15;73.11;97692.97;18505510;32;20109;-62
2022/07/20 01:16:22;;;;;;;7.15;3.17;;;;;;;19.07;73.75;97711.03;18503806;32;20058;-63
2022/07/20 01:26:24;;;;;;;6.05;2.62;;;;;;;19.00;73.94;97710.72;18503501;32;20057;-63
2022/07/20 01:36:27;;;;;;;6.30;2.93;;;;;;;18.86;75.05;97717.16;18503939;32;20136;-62
2022/07/20 01:46:29;;;;;;;3.12;2.65;;;;;;;18.81;74.56;97720.03;18489179;32;20099;-63
2022/07/20 01:56:31;;;;;;;3.97;3.00;;;;;;;18.72;76.23;97724.72;18502329;32;20062;-63
2022/07/20 02:06:34;;;;;;;3.65;2.60;;;;;;;18.61;75.60;97719.56;18501575;32;20102;-63
2022/07/20 02:16:36;;;;;;;5.97;3.00;;;;;;;18.55;76.37;97731.00;18501378;32;20110;-62
2022/07/20 02:26:38;;;;;;;3.15;2.60;;;;;;;18.54;76.43;97743.88;18486874;32;20092;-62
2022/07/20 02:36:41;;;;;;;4.70;3.30;;;;;;;18.52;77.52;97748.06;18498899;32;20138;-63
2022/07/20 02:46:43;;;;;;;4.85;3.03;;;;;;;18.55;77.39;97747.44;18499807;32;20052;-62
2022/07/20 02:56:45;;;;;;;4.07;2.95;;;;;;;18.50;77.71;97748.41;18484428;32;20121;-63
2022/07/20 03:06:47;;;;;;;3.83;2.70;;;;;;;18.47;78.38;97729.84;18498392;32;20100;-63
2022/07/20 03:16:51;;;;;;;3.20;2.78;;;;;;;18.50;78.66;97751.13;18483404;32;20072;-62
2022/07/20 03:26:53;;;;;;;3.00;2.60;;;;;;;18.63;78.22;97731.00;18496892;32;20119;-62
2022/07/20 03:36:56;;;;;;;2.92;2.62;;;;;;;18.74;77.49;97772.56;18497099;32;20127;-63
2022/07/20 03:46:58;;;;;;;3.73;2.63;;;;;;;18.90;76.87;97772.12;18482420;32;20053;-63
2022/07/20 03:57:01;;;;;;;3.47;2.80;;;;;;;19.04;77.83;97777.44;18481442;32;20482;-63
2022/07/20 04:07:03;;;;;;;2.90;2.58;;;;;;;19.09;77.31;97766.31;18495741;32;20110;-63
2022/07/20 04:17:06;;;;;;;3.37;2.83;;;;;;;19.13;78.52;97783.75;18495109;32;20118;-62
2022/07/20 04:27:09;;;;;;;7.60;3.27;;;;;;;19.23;78.72;97785.34;18494959;32;20052;-63
2022/07/20 04:37:12;;;;;;;3.43;2.60;;;;;;;19.38;79.21;97797.75;18505162;32;20068;-63
2022/07/20 04:47:14;;;;;;;3.47;2.57;;;;;;;19.56;79.56;97791.06;18506650;32;20192;-63
2022/07/20 04:57:16;;;;;;;2.67;2.45;;;;;;;19.82;80.05;97803.16;18491781;32;20112;-62
2022/07/20 05:07:18;;;;;;;2.53;2.30;;;;;;;20.06;78.65;97816.28;18491135;32;20437;-62
2022/07/20 05:17:21;;;;;;;3.92;2.70;;;;;;;20.33;77.38;97833.47;18490847;32;20056;-63
2022/07/20 05:27:23;;;;;;;3.27;2.60;;;;;;;20.52;78.07;97847.56;18491096;32;20061;-62
2022/07/20 05:37:25;;;;;;;3.90;2.67;;;;;;;20.71;78.13;97849.13;18504373;32;20411;-63
2022/07/20 05:47:28;;;;;;;3.37;2.77;;;;;;;21.10;77.62;97856.16;18503034;32;20103;-63
2022/07/20 05:57:30;;;;;;;4.23;2.30;;;;;;;21.70;76.28;97866.97;18488235;32;20053;-63
2022/07/20 06:07:33;;;;;;;4.57;2.80;;;;;;;22.43;75.04;97870.25;18501984;32;20060;-63
2022/07/20 06:17:37;;;;;;;5.63;3.43;;;;;;;23.34;71.49;97880.97;18501446;32;20461;-63
2022/07/20 06:27:41;;;;;;;5.10;3.53;;;;;;;24.48;67.22;97898.25;18500786;32;20061;-63
2022/07/20 06:37:43;;;;;;;5.28;3.25;;;;;;;25.46;60.76;97909.62;18499885;32;20049;-63
2022/07/20 06:47:46;;;;;;;4.00;3.60;;;;;;;26.19;56.43;97917.41;18500127;32;20411;-63
2022/07/20 06:57:48;;;;;;;4.43;3.35;;;;;;;26.60;56.60;97937.13;18497932;32;20429;-63
2022/07/20 07:07:51;;;;;;;5.62;3.85;;;;;;;26.79;51.91;97941.84;18498386;32;20069;-63
2022/07/20 07:17:53;;;;;;;5.78;3.90;;;;;;;27.01;53.52;97953.25;18483401;32;20060;-63
2022/07/20 07:27:56;;;;;;;6.03;4.80;;;;;;;27.28;47.81;97948.50;18497228;32;20419;-64
2022/07/20 07:37:58;;;;;;;6.95;4.75;;;;;;;27.56;49.59;97931.47;18496536;32;20093;-64
2022/07/20 07:48:01;;;;;;;7.47;6.22;;;;;;;27.93;52.27;97945.78;18496566;32;20103;-64
2022/07/20 07:58:04;;;;;;;7.57;6.82;;;;;;;28.58;50.31;97959.22;18494434;32;20045;-63
2022/07/20 08:08:10;;;;;;;10.82;7.53;;;;;;;28.97;50.87;97955.22;18504443;32;20053;-63
2022/07/20 08:18:13;;;;;;;11.35;10.15;;;;;;;29.47;49.62;97959.53;18516607;32;20065;-64
2022/07/20 08:28:23;;;;;;;11.25;10.15;;;;;;;29.13;50.78;97970.81;18501868;32;20129;-63
2022/07/20 08:38:27;;;;;;;14.68;11.90;;;;;;;29.31;51.67;97959.81;18515136;32;20056;-63
2022/07/20 08:48:35;;;;;;;14.13;12.55;;;;;;;30.28;48.39;97949.09;18502366;32;20063;-63
2022/07/20 08:58:37;;;;;;;17.52;14.93;;;;;;;31.30;47.83;97952.75;18500895;32;20057;-64
2022/07/20 09:08:59;;;;;;;22.50;18.20;;;;;;;31.14;49.57;97956.00;18515241;32;20113;-64
2022/07/20 09:19:03;;;;;;;20.08;17.98;;;;;;;30.62;49.48;97971.13;18509084;32;20071;-63
2022/07/20 09:29:06;;;;;;;20.77;17.50;;;;;;;31.07;52.17;97971.53;18504472;32;20105;-64
2022/07/20 09:39:14;;;;;;;18.83;16.25;;;;;;;32.07;48.40;97980.87;18503506;32;20057;-63
2022/07/20 09:49:17;;;;;;;21.45;17.75;;;;;;;32.00;47.58;97986.50;18503343;32;20547;-63
2022/07/20 09:59:20;;;;;;;22.77;17.27;;;;;;;30.16;53.28;98021.97;18488188;32;20048;-64
2022/07/20 10:09:23;;;;;;;21.92;17.33;;;;;;;28.55;63.56;98023.19;18501849;32;20079;-63
2022/07/20 10:19:47;;;;;;;20.92;17.50;;;;;;;27.27;68.81;98032.16;18486703;32;20057;-63
2022/07/20 10:29:56;;;;;;;20.05;17.42;;;;;;;26.37;73.54;98040.50;18473465;32;20078;-63
2022/07/20 10:40:11;;;;;;;20.25;17.67;;;;;;;25.70;77.28;98033.16;18485851;32;20048;-63
2022/07/20 10:50:20;;;;;;;26.12;19.05;;;;;;;25.63;80.24;98052.38;18499632;32;20140;-63
2022/07/20 11:00:29;;;;;;;27.37;18.48;;;;;;;26.32;71.07;98023.38;18498819;32;20483;-63
2022/07/20 11:10:33;;;;;;;24.35;18.65;;;;;;;28.18;62.22;98023.97;18498074;32;20419;-63
2022/07/20 11:20:36;;;;;;;21.52;17.58;;;;;;;29.76;56.99;98024.56;18497946;32;20385;-63
2022/07/20 11:30:39;;;;;;;21.90;18.10;;;;;;;29.65;58.97;98012.56;18496827;32;20444;-63
2022/07/20 11:40:55;;;;;;;19.10;16.15;;;;;;;30.77;54.13;97994.25;18496292;32;20388;-63
2022/07/20 11:50:58;;;;;;;16.80;15.00;;;;;;;30.68;49.34;97979.88;18481809;32;20120;-64
2022/07/20 12:01:04;;;;;;;18.02;14.35;;;;;;;30.49;52.43;97972.69;18429704;32;20080;-63
2022/07/20 12:11:09;;;;;;;17.52;14.20;;;;;;;31.00;47.80;97948.38;18430927;32;20108;-63
2022/07/20 12:21:16;;;;;;;14.50;13.00;;;;;;;31.98;49.15;97952.53;18430571;32;20339;-63
2022/07/20 12:31:21;;;;;;;15.45;11.35;;;;;;;32.03;45.64;97940.94;18430607;32;20391;-63
2022/07/20 12:41:24;;;;;;;17.25;13.73;;;;;;;32.52;44.34;97923.47;18430144;32;20091;-63
2022/07/20 12:51:48;;;;;;;17.45;15.52;;;;;;;32.51;44.37;97902.31;18433806;32;20475;-63
2022/07/20 13:01:53;;;;;;;18.85;15.93;;;;;;;32.58;44.50;97891.03;18492046;32;20064;-63
2022/07/20 13:11:57;;;;;;;19.65;15.48;;;;;;;33.33;44.15;97874.75;18491587;32;20065;-63
2022/07/20 13:21:59;;;;;;;16.23;13.95;;;;;;;33.66;41.25;97861.13;18503632;32;20135;-63
2022/07/20 13:32:02;;;;;;;15.35;13.85;;;;;;;33.40;43.54;97858.63;18504053;32;20445;-63
2022/07/20 13:42:07;;;;;;;24.67;15.38;;;;;;;32.92;47.12;97870.75;18503683;32;20069;-63
2022/07/20 13:52:11;;;;;;;14.23;12.60;;;;;;;32.52;50.41;97840.31;18488224;32;20057;-62
2022/07/20 14:02:26;;;;;;;13.07;11.85;;;;;;;31.66;53.85;97815.75;18502215;32;20500;-63
2022/07/20 14:12:28;;;;;;;12.73;11.48;;;;;;;30.92;54.42;97794.03;18487740;32;20377;-63
2022/07/20 14:22:31;;;;;;;13.07;11.80;;;;;;;30.68;57.57;97771.34;18474079;32;20096;-62
2022/07/20 14:32:34;;;;;;;17.17;12.27;;;;;;;30.86;60.65;97720.28;18500745;32;20061;-63
2022/07/20 14:42:37;;;;;;;12.27;11.10;;;;;;;30.31;62.77;97729.97;18498854;32;20397;-63
2022/07/20 14:52:50;;;;;;;17.70;12.43;;;;;;;30.23;63.19;97771.81;18498789;32;20053;-63
2022/07/20 15:03:17;;;;;;;13.00;11.70;;;;;;;29.82;63.80;97799.22;18497699;32;20052;-63
2022/07/20 15:13:20;;;;;;;13.50;11.63;;;;;;;28.95;64.78;97768.28;18497933;32;20061;-62
2022/07/20 15:23:22;;;;;;;15.50;11.73;;;;;;;28.23;67.27;97781.72;18497904;32;20074;-63
2022/07/20 15:33:25;;;;;;;15.20;12.30;;;;;;;27.55;66.91;97704.13;18496910;32;20065;-63
2022/07/20 15:43:30;;;;;;;14.82;12.18;;;;;;;26.96;71.66;97714.97;18496498;32;20065;-62
2022/07/20 15:53:33;;;;;;;18.42;11.63;;;;;;;26.28;76.13;97778.56;18481769;32;20049;-62
2022/07/20 16:03:36;;;;;;;18.83;8.95;;;;;;;25.67;72.33;97927.84;18495722;32;20064;-62
2022/07/20 16:13:39;;;;;;;11.63;7.50;;;;;;;22.00;81.90;98068.62;18481186;32;20048;-61
2022/07/20 16:23:43;;;;;;;10.48;6.57;;;;;;;19.85;92.26;97901.28;18481581;32;20058;-62
2022/07/20 16:33:46;;;;;;;8.77;7.63;;;;;;;19.41;100.00;97824.50;18506298;32;20056;-62
2022/07/20 16:43:51;;;;;;;8.50;6.82;;;;;;;19.39;98.24;97892.56;18507331;32;20065;-62
2022/07/20 16:53:54;;;;;;;8.88;6.28;;;;;;;19.75;100.00;97811.84;18506844;32;20049;-62
2022/07/20 17:03:57;;;;;;;7.63;6.60;;;;;;;20.40;100.00;97833.75;18506144;32;20065;-62
2022/07/20 17:13:59;;;;;;;10.00;6.07;;;;;;;20.63;96.55;97865.28;18505831;32;20077;-61
2022/07/20 17:24:02;;;;;;;7.67;5.17;;;;;;;20.39;96.60;97845.88;18504810;32;20084;-62
2022/07/20 17:34:05;;;;;;;7.28;6.35;;;;;;;20.08;99.26;97866.19;18504049;32;20062;-62
2022/07/20 17:44:08;;;;;;;9.07;4.77;;;;;;;19.93;100.00;97956.13;18503271;32;20101;-62
2022/07/20 17:54:11;;;;;;;6.03;4.73;;;;;;;19.69;100.00;97866.06;18502740;32;20484;-62
2022/07/20 18:04:13;;;;;;;6.10;5.22;;;;;;;19.29;100.00;97952.09;18501357;32;20091;-62
2022/07/20 18:14:16;;;;;;;6.15;5.50;;;;;;;19.35;100.00;97971.94;18488137;32;20087;-62
2022/07/20 18:24:19;;;;;;;;;;;;;;;19.35;100.00;97971.09;18501317;32;20117;-62
2022/07/20 18:34:22;;;;;;;6.35;5.32;;;;;;;19.53;100.00;97972.75;18499920;32;19959;-62
2022/07/20 18:44:25;;;;;;;9.20;5.97;;;;;;;19.80;100.00;97932.41;18485967;32;20049;-62
2022/07/20 18:54:28;;;;;;;8.40;6.77;;;;;;;19.71;100.00;98033.13;18485077;32;20528;-62
2022/07/20 19:04:32;;;;;;;7.63;6.10;;;;;;;19.50;100.00;98021.94;18497772;32;20156;-62
2022/07/20 19:14:35;;;;;;;7.32;6.55;;;;;;;19.48;100.00;98052.44;18483874;32;20449;-62
2022/07/20 19:24:38;;;;;;;11.12;7.28;;;;;;;19.50;100.00;98137.12;18497438;32;20065;-62
2022/07/20 19:34:41;;;;;;;12.25;9.30;;;;;;;19.48;100.00;98181.31;18496850;32;20098;-62
2022/07/20 19:44:44;;;;;;;11.57;9.48;;;;;;;19.46;100.00;98124.06;18482715;32;20057;-62
2022/07/20 19:54:47;;;;;;;11.17;9.20;;;;;;;19.39;100.00;98125.63;18495905;32;20069;-62
2022/07/20 20:04:50;;;;;;;13.87;10.13;;;;;;;19.50;100.00;98110.53;18495397;32;20121;-62
2022/07/20 20:14:53;;;;;;;14.57;11.20;;;;;;;19.63;100.00;98167.19;18481179;32;20053;-62
2022/07/20 20:24:55;;;;;;;18.20;10.47;;;;;;;19.77;100.00;98141.56;18480965;32;20065;-62
2022/07/20 20:34:58;;;;;;;9.53;8.40;;;;;;;19.73;100.00;98133.16;18480942;32;20178;-62
2022/07/20 20:45:02;;;;;;;13.70;9.15;;;;;;;19.70;100.00;98165.91;18494754;32;20136;-62
2022/07/20 20:55:07;;;;;;;;;;;;;;;19.63;100.00;98163.63;18494188;32;20441;-63
2022/07/20 21:05:09;;;;;;;9.60;8.10;;;;;;;19.59;100.00;98159.91;18494258;32;19956;-63
2022/07/20 21:15:12;;;;;;;13.70;9.50;;;;;;;19.62;100.00;98159.28;18482881;32;20069;-63
2022/07/20 21:25:16;;;;;;;11.25;8.75;;;;;;;19.66;100.00;98156.72;18505040;32;20101;-62
2022/07/20 21:35:19;;;;;;;11.17;8.63;;;;;;;19.64;100.00;98188.00;18503321;32;20071;-63
2022/07/20 21:45:21;;;;;;;12.50;8.82;;;;;;;19.65;100.00;98194.28;18503901;32;20099;-62
2022/07/20 21:55:26;;;;;;;8.50;7.60;;;;;;;19.59;100.00;98204.59;18502828;32;20494;-62
2022/07/20 22:05:28;;;;;;;9.95;8.95;;;;;;;19.58;100.00;98213.16;18488429;32;20486;-62
2022/07/20 22:15:31;;;;;;;9.47;8.40;;;;;;;19.58;100.00;98248.81;18474765;32;20116;-62
2022/07/20 22:25:36;;;;;;;10.38;8.15;;;;;;;19.52;100.00;98231.69;18501580;32;20087;-62
2022/07/20 22:35:40;;;;;;;10.10;6.95;;;;;;;19.40;100.00;98224.03;18486263;32;20093;-62
2022/07/20 22:45:43;;;;;;;8.52;7.60;;;;;;;19.34;100.00;98233.53;18500036;32;20079;-62
2022/07/20 22:55:47;;;;;;;8.33;7.20;;;;;;;19.29;100.00;98234.47;18498954;32;20057;-62
2022/07/20 23:05:50;;;;;;;8.00;7.10;;;;;;;19.26;100.00;98224.13;18497529;32;20205;-62
2022/07/20 23:15:53;;;;;;;11.80;8.68;;;;;;;19.24;100.00;98228.28;18498146;32;20057;-62
2022/07/20 23:25:56;;;;;;;;;;;;;;;19.24;100.00;98251.06;18498170;32;20064;-62
2022/07/20 23:35:58;;;;;;;9.43;7.80;;;;;;;19.20;100.00;98249.22;18496790;32;19948;-62
2022/07/20 23:46:01;;;;;;;9.27;8.20;;;;;;;19.19;100.00;98231.97;18482988;32;20057;-62
2022/07/20 23:56:07;;;;;;;11.15;8.80;;;;;;;19.15;100.00;98231.00;18496069;32;20109;-62
